Time;durP1;ratioP1;P1;durP2;ratioP2;P2;SDS_P1;SDS_P2;PMS_P1;PMS_P2;Temp;Humidity;BMP_temperature;BMP_pressure;BME280_temperature;BME280_humidity;BME280_pressure;Samples;Min_cycle;Max_cycle;Signal;HPM_P1;HPM_P2
2023/10/07 00:00:51;;;;;;;1005.53;948.63;;;;;;;17.90;56.55;99475.00;5076656;27;103010;-63
2023/10/07 00:03:20;;;;;;;980.33;925.42;;;;;;;17.79;55.38;99467.09;5055083;27;103081;-63
2023/10/07 00:05:50;;;;;;;1008.03;951.30;;;;;;;17.21;57.92;99474.88;5076720;27;103263;-63
2023/10/07 00:08:20;;;;;;;999.92;943.92;;;;;;;17.58;56.74;99477.84;5075444;27;103901;-64
2023/10/07 00:10:50;;;;;;;990.57;935.10;;;;;;;18.33;55.60;99469.25;5058566;27;103050;-63
2023/10/07 00:13:20;;;;;;;969.05;918.00;;;;;;;18.74;53.85;99466.28;5075224;27;104183;-63
2023/10/07 00:15:51;;;;;;;940.38;892.72;;;;;;;18.77;52.81;99471.34;5071924;27;104246;-63
2023/10/07 00:18:22;;;;;;;926.40;879.17;;;;;;;18.87;51.88;99465.94;5056553;27;103540;-64
2023/10/07 00:20:53;;;;;;;944.17;897.10;;;;;;;18.88;52.33;99470.31;5078817;27;102685;-63
2023/10/07 00:23:22;;;;;;;987.57;932.83;;;;;;;17.74;54.40;99467.47;5077536;27;104160;-63
2023/10/07 00:25:53;;;;;;;1013.50;956.65;;;;;;;17.99;53.87;99462.63;5076065;27;104105;-63
2023/10/07 00:28:28;;;;;;;970.80;919.47;;;;;;;18.44;53.45;99469.09;5078419;27;103257;-64
2023/10/07 00:31:02;;;;;;;934.65;887.17;;;;;;;18.49;52.00;99474.91;5057192;27;103001;-64
2023/10/07 00:33:45;;;;;;;918.10;872.10;;;;;;;18.70;51.75;99464.00;5076738;27;103900;-63
2023/10/07 00:36:16;;;;;;;929.08;882.17;;;;;;;18.63;51.90;99463.75;5057410;27;103333;-63
2023/10/07 00:38:44;;;;;;;913.17;867.30;;;;;;;18.80;51.29;99462.19;5058514;27;104516;-63
2023/10/07 00:41:18;;;;;;;950.70;901.22;;;;;;;17.91;52.18;99461.47;5076530;27;102711;-63
2023/10/07 00:43:47;;;;;;;1050.83;990.83;;;;;;;16.38;57.60;99468.72;5055877;27;104033;-63
2023/10/07 00:46:28;;;;;;;1020.33;963.08;;;;;;;17.15;55.98;99472.72;5058371;27;103463;-63
2023/10/07 00:48:59;;;;;;;984.80;930.50;;;;;;;18.00;54.02;99461.63;5057335;27;103279;-63
2023/10/07 00:51:34;;;;;;;936.53;888.78;;;;;;;18.44;52.69;99459.22;5058843;27;102837;-63
2023/10/07 00:54:16;;;;;;;966.47;915.90;;;;;;;18.33;52.31;99455.88;5074615;27;102662;-64
2023/10/07 00:57:01;;;;;;;925.25;879.08;;;;;;;18.54;51.99;99451.22;5074793;27;103346;-63
2023/10/07 00:59:30;;;;;;;1013.22;955.30;;;;;;;17.16;54.76;99458.41;5057573;27;104075;-63
2023/10/07 01:01:58;;;;;;;1017.25;960.63;;;;;;;17.28;55.77;99457.34;5057326;27;102650;-63
2023/10/07 01:04:39;;;;;;;991.47;935.67;;;;;;;17.23;54.82;99445.38;5075868;27;103548;-63
2023/10/07 01:07:12;;;;;;;994.67;938.20;;;;;;;18.00;54.51;99443.75;5056136;27;104057;-63
2023/10/07 01:09:57;;;;;;;1015.90;959.13;;;;;;;17.47;55.48;99442.34;5076106;27;102945;-63
2023/10/07 01:12:35;;;;;;;968.47;914.55;;;;;;;18.01;54.03;99436.59;5075049;27;102930;-63
2023/10/07 01:15:11;;;;;;;994.60;940.05;;;;;;;17.62;53.74;99431.19;5076102;27;104060;-63
2023/10/07 01:17:41;;;;;;;995.10;940.53;;;;;;;17.22;55.99;99422.31;5053427;27;103983;-63
2023/10/07 01:20:11;;;;;;;990.10;936.20;;;;;;;17.29;56.15;99426.97;5057017;27;103255;-63
2023/10/07 01:22:45;;;;;;;1007.33;951.13;;;;;;;17.17;56.94;99427.22;5076978;27;102633;-62
2023/10/07 01:25:18;;;;;;;982.47;928.00;;;;;;;16.82;58.66;99424.94;5075600;27;104408;-63
2023/10/07 01:27:53;;;;;;;966.58;913.83;;;;;;;16.72;58.29;99416.06;5074709;27;104364;-63
2023/10/07 01:30:26;;;;;;;970.95;917.25;;;;;;;17.85;55.94;99407.75;5054470;27;104237;-63
2023/10/07 01:33:01;;;;;;;936.20;885.55;;;;;;;18.28;54.19;99397.44;5076274;27;102641;-63
2023/10/07 01:35:38;;;;;;;982.63;927.93;;;;;;;17.28;56.36;99419.13;5058349;27;104578;-63
2023/10/07 01:38:08;;;;;;;973.45;919.70;;;;;;;16.38;57.82;99410.06;5073707;27;103066;-63
2023/10/07 01:40:54;;;;;;;956.75;904.90;;;;;;;15.50;62.42;99409.44;5060174;27;104313;-63
2023/10/07 01:43:24;;;;;;;938.65;890.05;;;;;;;14.97;66.29;99416.38;5060875;27;102756;-63
2023/10/07 01:45:53;;;;;;;961.70;911.92;;;;;;;15.85;64.45;99405.72;5061020;27;104194;-63
2023/10/07 01:48:21;;;;;;;956.00;905.78;;;;;;;16.88;60.44;99399.56;5060063;27;104610;-63
2023/10/07 01:50:50;;;;;;;956.30;905.90;;;;;;;16.88;59.91;99405.75;5079709;27;105903;-63
2023/10/07 01:53:19;;;;;;;946.85;897.40;;;;;;;16.35;60.15;99413.00;5060865;27;102828;-63
2023/10/07 01:55:47;;;;;;;944.78;894.35;;;;;;;15.57;63.25;99415.13;5079840;27;104139;-63
2023/10/07 01:58:17;;;;;;;947.95;897.60;;;;;;;16.47;59.90;99417.28;5058374;27;103706;-63
2023/10/07 02:00:51;;;;;;;958.38;907.53;;;;;;;16.76;59.65;99418.31;5059527;27;104235;-63
2023/10/07 02:03:24;;;;;;;961.20;909.40;;;;;;;17.11;59.31;99422.41;5061509;27;103125;-63
2023/10/07 02:05:53;;;;;;;921.92;873.67;;;;;;;17.62;56.93;99420.50;5081430;27;103031;-63
2023/10/07 02:08:24;;;;;;;951.72;901.03;;;;;;;15.72;62.23;99426.38;5060046;27;104380;-63
2023/10/07 02:10:56;;;;;;;973.85;922.67;;;;;;;15.69;64.23;99430.09;5055539;27;104179;-63
2023/10/07 02:13:27;;;;;;;978.40;926.22;;;;;;;16.49;63.01;99420.66;5061414;27;102714;-63
2023/10/07 02:15:56;;;;;;;924.50;876.97;;;;;;;17.55;58.81;99422.03;5059579;27;103725;-63
2023/10/07 02:18:27;;;;;;;907.80;860.17;;;;;;;17.85;55.85;99418.44;5060054;27;104326;-63
2023/10/07 02:21:06;;;;;;;931.50;881.65;;;;;;;17.77;53.83;99421.78;5078831;27;103263;-63
2023/10/07 02:23:40;;;;;;;916.30;868.33;;;;;;;17.30;52.98;99433.16;5059209;27;102659;-63
2023/10/07 02:26:14;;;;;;;929.95;880.20;;;;;;;16.56;54.30;99437.84;5061593;27;104013;-63
2023/10/07 02:28:44;;;;;;;906.65;858.88;;;;;;;17.26;54.01;99431.75;5058824;27;104254;-64
2023/10/07 02:31:17;;;;;;;927.60;878.17;;;;;;;17.39;53.90;99437.72;5058805;27;103427;-63
2023/10/07 02:33:51;;;;;;;930.37;880.63;;;;;;;16.62;55.41;99453.34;5080777;27;103595;-63
2023/10/07 02:36:29;;;;;;;956.73;904.80;;;;;;;16.34;57.34;99453.94;5077477;27;104021;-63
2023/10/07 02:39:03;;;;;;;932.03;882.40;;;;;;;17.12;56.20;99456.16;5058293;27;104128;-63
2023/10/07 02:41:34;;;;;;;916.72;867.70;;;;;;;17.61;54.46;99442.00;5058379;27;103198;-63
2023/10/07 02:44:08;;;;;;;913.67;866.05;;;;;;;17.82;53.43;99440.91;5059921;27;102923;-63
2023/10/07 02:46:37;;;;;;;914.17;866.47;;;;;;;17.29;53.29;99452.88;5061154;27;104427;-63
2023/10/07 02:49:06;;;;;;;946.85;894.05;;;;;;;16.22;55.78;99455.00;5058686;27;104158;-63
2023/10/07 02:51:39;;;;;;;927.13;878.50;;;;;;;15.84;58.74;99459.97;5058465;27;103554;-63
2023/10/07 02:54:17;;;;;;;934.75;885.13;;;;;;;16.38;57.54;99451.88;5078624;27;102617;-63
2023/10/07 02:56:54;;;;;;;917.63;868.73;;;;;;;16.50;55.64;99449.03;5058076;27;104506;-63
2023/10/07 02:59:28;;;;;;;931.22;881.15;;;;;;;16.97;56.18;99452.13;5062553;27;104437;-63
2023/10/07 03:02:14;;;;;;;922.08;872.25;;;;;;;17.36;54.58;99449.50;5056228;27;105678;-63
2023/10/07 03:04:44;;;;;;;915.70;866.43;;;;;;;16.57;55.01;99455.56;5074957;27;103031;-63
2023/10/07 03:07:34;;;;;;;902.40;854.13;;;;;;;17.13;54.79;99458.69;5078424;27;102771;-63
2023/10/07 03:10:16;;;;;;;917.70;868.20;;;;;;;17.16;54.94;99446.88;5078694;27;103355;-64
2023/10/07 03:12:47;;;;;;;943.63;892.33;;;;;;;16.30;55.91;99441.88;5060117;27;103215;-63
2023/10/07 03:15:29;;;;;;;939.40;890.00;;;;;;;16.08;58.04;99439.31;5057804;27;105512;-63
2023/10/07 03:17:57;;;;;;;954.10;903.80;;;;;;;16.23;57.69;99446.84;5060002;27;102676;-63
2023/10/07 03:20:28;;;;;;;919.43;870.87;;;;;;;15.87;57.90;99449.06;5059075;27;103277;-63
2023/10/07 03:23:14;;;;;;;944.03;894.63;;;;;;;16.32;57.77;99441.72;5059447;27;103319;-63
2023/10/07 03:26:05;;;;;;;969.47;918.47;;;;;;;15.57;59.70;99447.94;5078148;27;103046;-63
2023/10/07 03:28:36;;;;;;;971.25;920.38;;;;;;;14.53;68.16;99453.59;5079139;27;104285;-63
2023/10/07 03:31:10;;;;;;;952.13;901.78;;;;;;;15.64;62.67;99453.59;5077878;27;104113;-63
2023/10/07 03:33:50;;;;;;;949.10;898.88;;;;;;;16.15;61.60;99453.81;5079278;27;103237;-63
2023/10/07 03:36:45;;;;;;;944.30;894.77;;;;;;;16.04;60.76;99456.50;5079794;27;102672;-63
2023/10/07 03:39:23;;;;;;;944.03;894.40;;;;;;;16.37;60.60;99464.38;5069611;27;104398;-63
2023/10/07 03:41:59;;;;;;;968.00;915.65;;;;;;;15.23;64.07;99477.34;5076631;27;103980;-62
2023/10/07 03:44:28;;;;;;;943.87;893.87;;;;;;;15.46;65.48;99482.59;5054607;27;103294;-63
2023/10/07 03:46:56;;;;;;;956.22;903.85;;;;;;;16.22;61.19;99481.66;5079033;27;103367;-63
2023/10/07 03:49:33;;;;;;;967.25;914.45;;;;;;;15.97;63.16;99487.31;5059616;27;105127;-63
2023/10/07 03:52:07;;;;;;;951.17;899.20;;;;;;;15.87;61.76;99483.69;5078712;27;103208;-63
2023/10/07 03:54:36;;;;;;;972.08;918.08;;;;;;;15.41;63.62;99492.69;5064176;27;103269;-62
2023/10/07 03:57:07;;;;;;;948.57;897.13;;;;;;;15.95;62.23;99494.56;5058017;27;103077;-62
2023/10/07 03:59:37;;;;;;;945.67;896.08;;;;;;;16.90;58.99;99485.69;5077423;27;103941;-62
2023/10/07 04:02:29;;;;;;;962.83;911.97;;;;;;;17.06;56.88;99494.06;5078549;27;103299;-63
2023/10/07 04:04:59;;;;;;;890.47;844.38;;;;;;;16.74;55.26;99492.31;5071204;27;103908;-62
2023/10/07 04:07:30;;;;;;;895.17;848.70;;;;;;;17.09;54.21;99485.78;5066423;27;103224;-63
2023/10/07 04:10:11;;;;;;;902.00;854.88;;;;;;;17.06;54.16;99488.72;5076743;27;103849;-62
2023/10/07 04:12:44;;;;;;;913.17;866.08;;;;;;;16.71;55.46;99484.59;5077928;27;105379;-62
2023/10/07 04:15:12;;;;;;;926.40;878.58;;;;;;;16.62;54.44;99496.03;5076562;27;103269;-63
2023/10/07 04:17:42;;;;;;;891.55;845.20;;;;;;;16.71;55.51;99499.75;5057030;27;102923;-63
2023/10/07 04:20:20;;;;;;;923.35;875.50;;;;;;;16.10;57.11;99494.19;5057436;27;102797;-62
2023/10/07 04:22:57;;;;;;;902.58;856.10;;;;;;;16.07;56.45;99498.91;5056717;27;103852;-62
2023/10/07 04:25:27;;;;;;;944.60;894.08;;;;;;;15.50;59.58;99497.34;5056722;27;104345;-62
2023/10/07 04:27:57;;;;;;;946.85;897.50;;;;;;;16.66;57.20;99489.47;5056363;27;102758;-63
2023/10/07 04:30:38;;;;;;;902.72;856.65;;;;;;;17.03;55.51;99492.50;5074775;27;105616;-62
2023/10/07 04:33:08;;;;;;;916.88;869.33;;;;;;;16.17;57.52;99490.03;5056708;27;104489;-62
2023/10/07 04:35:38;;;;;;;915.73;868.40;;;;;;;16.89;56.16;99486.66;5072253;27;103207;-60
2023/10/07 04:38:19;;;;;;;902.65;855.58;;;;;;;17.28;54.68;99483.22;5055523;27;103206;-60
2023/10/07 04:43:49;;;;;;;945.85;895.83;;;;;;;14.79;59.60;99475.50;5074030;27;104232;-61
2023/10/07 04:46:22;;;;;;;945.92;896.33;;;;;;;15.54;59.93;99492.63;5074537;27;103198;-60
2023/10/07 04:48:56;;;;;;;934.72;885.80;;;;;;;15.54;59.11;99506.78;5077867;27;102868;-60
2023/10/07 04:51:46;;;;;;;951.20;900.72;;;;;;;15.97;58.11;99503.31;5057933;27;103275;-60
2023/10/07 04:54:20;;;;;;;933.42;884.97;;;;;;;15.65;58.68;99496.13;5042437;27;103271;-59
2023/10/07 04:56:53;;;;;;;914.92;867.55;;;;;;;15.75;57.67;99498.88;5072369;27;103189;-59
2023/10/07 04:59:24;;;;;;;946.25;897.45;;;;;;;16.40;57.89;99480.09;5055536;27;102973;-59
2023/10/07 05:01:56;;;;;;;896.40;851.27;;;;;;;16.70;55.47;99485.53;5074868;27;103260;-59
2023/10/07 05:04:25;;;;;;;879.60;834.37;;;;;;;16.40;54.37;99487.25;5077632;27;104143;-60
2023/10/07 05:06:53;;;;;;;866.38;822.00;;;;;;;16.85;54.60;99486.06;5057061;27;103799;-60
2023/10/07 05:09:23;;;;;;;891.25;845.45;;;;;;;16.66;55.36;99477.94;5058340;27;102864;-60
2023/10/07 05:11:49;;;;;;;885.55;840.05;;;;;;;16.56;54.88;99469.03;5077158;27;103062;-59
2023/10/07 05:14:18;;;;;;;905.45;859.75;;;;;;;16.80;55.06;99467.78;5072757;27;104247;-60
2023/10/07 05:16:47;;;;;;;894.50;848.57;;;;;;;17.12;54.22;99466.84;5076367;27;103186;-60
2023/10/07 05:19:22;;;;;;;904.22;857.38;;;;;;;17.18;54.30;99474.28;5076259;27;102601;-60
2023/10/07 05:21:59;;;;;;;904.65;858.20;;;;;;;16.78;54.33;99476.91;5057795;27;104120;-60
2023/10/07 05:24:32;;;;;;;904.17;857.60;;;;;;;15.75;57.02;99490.06;5076231;27;104337;-60
2023/10/07 05:27:01;;;;;;;936.47;887.72;;;;;;;15.85;57.95;99493.66;5074100;27;103591;-60
2023/10/07 05:29:29;;;;;;;928.75;880.65;;;;;;;16.56;57.44;99490.38;5072416;27;102665;-60
2023/10/07 05:32:00;;;;;;;906.80;860.53;;;;;;;16.74;55.81;99494.16;5074910;27;102925;-60
2023/10/07 05:34:29;;;;;;;898.67;853.22;;;;;;;16.60;56.98;99491.81;5073540;27;103419;-59
2023/10/07 05:36:58;;;;;;;904.70;858.47;;;;;;;16.53;56.14;99496.78;5052210;27;103451;-60
2023/10/07 05:39:26;;;;;;;939.93;890.43;;;;;;;16.44;58.07;99502.03;5076071;27;102937;-60
2023/10/07 05:41:54;;;;;;;920.47;874.57;;;;;;;16.94;55.95;99500.44;5057533;27;104139;-59
2023/10/07 05:44:22;;;;;;;883.03;838.07;;;;;;;16.93;55.21;99504.94;5056386;27;104148;-60
2023/10/07 05:46:51;;;;;;;901.87;854.93;;;;;;;16.49;54.66;99508.69;5076186;27;103404;-60
2023/10/07 05:49:20;;;;;;;876.55;830.80;;;;;;;16.52;53.42;99507.56;5074017;27;102862;-60
2023/10/07 05:51:48;;;;;;;894.95;849.33;;;;;;;16.41;55.59;99500.47;5077102;27;103587;-60
2023/10/07 05:54:18;;;;;;;884.80;839.07;;;;;;;16.01;55.98;99515.41;5072673;27;104101;-60
2023/10/07 05:56:48;;;;;;;950.65;900.47;;;;;;;15.35;59.72;99495.03;5075905;27;103278;-60
2023/10/07 05:59:16;;;;;;;929.20;881.30;;;;;;;16.45;58.00;99498.41;5075838;27;102854;-59
2023/10/07 06:01:44;;;;;;;945.50;896.05;;;;;;;16.21;58.78;99501.28;5076820;27;102952;-60
2023/10/07 06:04:12;;;;;;;913.25;867.33;;;;;;;16.60;57.13;99487.31;5062691;27;103901;-59
2023/10/07 06:06:43;;;;;;;929.37;881.80;;;;;;;17.07;55.77;99493.06;5076964;27;103236;-61
2023/10/07 06:09:14;;;;;;;891.10;845.60;;;;;;;17.28;55.41;99494.75;5077056;27;103000;-59
2023/10/07 06:11:43;;;;;;;887.38;842.38;;;;;;;17.70;54.42;99499.97;5073579;27;103849;-59
2023/10/07 06:14:12;;;;;;;893.88;847.95;;;;;;;17.93;53.77;99494.28;5075140;27;103928;-59
2023/10/07 06:16:42;;;;;;;876.97;832.33;;;;;;;17.99;53.18;99502.72;5074606;27;103209;-59
2023/10/07 06:19:13;;;;;;;866.80;823.27;;;;;;;18.17;53.40;99511.72;5075079;27;103981;-60
2023/10/07 06:21:50;;;;;;;904.53;857.05;;;;;;;18.27;53.13;99500.06;5075141;27;104428;-59
2023/10/07 06:24:21;;;;;;;895.72;849.30;;;;;;;18.07;53.89;99505.53;5074227;27;104004;-59
2023/10/07 06:26:49;;;;;;;900.05;853.47;;;;;;;17.85;54.05;99494.09;5081100;27;103187;-60
2023/10/07 06:29:19;;;;;;;902.67;856.03;;;;;;;18.36;53.34;99499.22;5077360;27;102684;-60
2023/10/07 06:31:55;;;;;;;886.65;841.63;;;;;;;18.51;52.66;99492.50;5079869;27;103628;-60
2023/10/07 06:34:26;;;;;;;906.90;859.72;;;;;;;18.25;52.97;99490.47;5080585;27;103880;-60
2023/10/07 06:36:56;;;;;;;931.75;883.03;;;;;;;18.39;52.98;99487.38;5079986;27;103631;-60
2023/10/07 06:39:29;;;;;;;897.00;850.30;;;;;;;17.38;55.15;99489.41;5087153;27;102941;-67
2023/10/07 06:41:58;;;;;;;917.67;869.30;;;;;;;17.84;54.88;99503.13;5077334;27;102727;-68
2023/10/07 06:44:35;;;;;;;906.53;859.57;;;;;;;17.24;55.70;99514.66;5060544;27;103356;-68
2023/10/07 06:47:07;;;;;;;895.67;849.00;;;;;;;16.52;58.38;99532.44;5059490;27;104368;-66
2023/10/07 06:49:39;;;;;;;921.17;873.20;;;;;;;17.59;57.48;99535.66;5079388;27;102647;-68
2023/10/07 06:52:12;;;;;;;904.25;856.97;;;;;;;17.94;54.93;99529.84;5081359;27;102735;-68
2023/10/07 06:54:40;;;;;;;923.67;875.08;;;;;;;18.43;54.99;99536.97;5059424;27;104456;-67
2023/10/07 06:57:29;;;;;;;896.70;849.88;;;;;;;19.27;52.61;99521.94;5062162;27;104275;-68
2023/10/07 06:59:57;;;;;;;891.88;846.15;;;;;;;19.85;51.27;99536.81;5080244;27;102604;-67
2023/10/07 07:02:34;;;;;;;906.63;860.30;;;;;;;19.54;51.32;99544.28;5080015;27;103663;-68
2023/10/07 07:05:10;;;;;;;906.97;860.93;;;;;;;19.81;51.12;99550.66;5080211;27;103206;-67
2023/10/07 07:07:41;;;;;;;869.45;824.80;;;;;;;20.09;49.93;99547.84;5062599;27;104427;-68
2023/10/07 07:10:16;;;;;;;830.60;789.58;;;;;;;20.39;49.59;99543.97;5078489;27;104270;-68
2023/10/07 07:12:45;;;;;;;853.15;810.30;;;;;;;19.98;49.90;99552.56;5079894;27;103703;-68
2023/10/07 07:15:26;;;;;;;861.55;818.15;;;;;;;20.58;49.65;99542.97;5080892;27;103268;-67
2023/10/07 07:18:05;;;;;;;816.05;776.22;;;;;;;20.78;49.33;99539.13;5079897;27;103409;-67
2023/10/07 07:20:48;;;;;;;812.05;773.38;;;;;;;21.38;47.08;99542.78;5081001;27;102633;-67
2023/10/07 07:23:21;;;;;;;827.63;788.50;;;;;;;21.13;47.42;99546.31;5063284;27;102741;-66
2023/10/07 07:26:03;;;;;;;832.15;792.30;;;;;;;21.69;48.75;99543.13;5077488;27;103246;-68
2023/10/07 07:28:31;;;;;;;832.53;793.88;;;;;;;21.91;46.70;99545.28;5057872;27;103298;-67
2023/10/07 07:31:02;;;;;;;835.60;796.00;;;;;;;20.88;49.52;99539.91;5078754;27;103176;-67
2023/10/07 07:33:34;;;;;;;824.42;786.28;;;;;;;21.28;48.03;99537.50;5057397;27;102860;-67
2023/10/07 07:36:09;;;;;;;812.42;775.38;;;;;;;22.34;46.28;99520.81;5075491;27;103303;-67
2023/10/07 07:38:44;;;;;;;778.10;743.40;;;;;;;22.18;45.88;99531.56;5073410;27;104319;-67
2023/10/07 07:41:26;;;;;;;757.08;723.35;;;;;;;22.88;45.15;99538.22;5077823;27;102655;-67
2023/10/07 07:43:58;;;;;;;612.80;587.45;;;;;;;23.18;43.92;99535.84;5075359;27;102664;-66
2023/10/07 07:46:29;;;;;;;599.10;573.92;;;;;;;23.07;44.11;99537.06;5078843;27;103338;-67
2023/10/07 07:49:06;;;;;;;558.45;535.83;;;;;;;23.56;43.46;99538.66;5055504;27;104189;-67
2023/10/07 07:51:40;;;;;;;604.13;578.57;;;;;;;23.47;43.05;99528.91;5075620;27;102677;-67
2023/10/07 07:54:09;;;;;;;449.92;431.90;;;;;;;24.07;41.61;99522.94;5073688;27;103145;-67
2023/10/07 07:56:42;;;;;;;763.35;729.65;;;;;;;23.75;42.99;99523.09;5073454;27;103003;-67
2023/10/07 07:59:15;;;;;;;606.25;582.30;;;;;;;24.61;41.19;99531.91;5075849;27;103318;-66
2023/10/07 08:01:46;;;;;;;608.63;583.80;;;;;;;25.05;40.89;99532.06;5076936;27;102588;-67
2023/10/07 08:04:19;;;;;;;653.30;624.90;;;;;;;25.08;40.66;99529.00;5077065;27;103911;-66
2023/10/07 08:06:48;;;;;;;687.03;655.83;;;;;;;24.97;41.19;99537.53;5077760;27;103490;-66
2023/10/07 08:09:19;;;;;;;521.20;498.73;;;;;;;25.37;40.40;99542.56;5077135;27;103256;-67
2023/10/07 08:11:49;;;;;;;475.30;455.55;;;;;;;24.74;40.67;99535.69;5076688;27;102874;-66
2023/10/07 08:14:18;;;;;;;416.33;399.53;;;;;;;24.81;40.75;99537.69;5058032;27;104350;-67
2023/10/07 08:16:51;;;;;;;411.33;394.70;;;;;;;24.82;40.26;99539.34;5077109;27;103302;-66
2023/10/07 08:19:23;;;;;;;505.17;484.25;;;;;;;25.24;40.64;99536.94;5077415;27;103408;-67
2023/10/07 08:21:54;;;;;;;605.83;579.05;;;;;;;23.74;42.22;99549.22;5053296;27;102762;-67
2023/10/07 08:24:30;;;;;;;645.40;616.35;;;;;;;23.54;43.00;99543.41;5056180;27;103579;-66
2023/10/07 08:27:03;;;;;;;582.88;556.95;;;;;;;24.09;41.42;99543.34;5077359;27;107603;-67
2023/10/07 08:29:34;;;;;;;431.48;413.85;;;;;;;24.62;40.78;99538.97;5073063;27;104792;-66
2023/10/07 08:32:10;;;;;;;404.67;388.60;;;;;;;24.61;40.91;99538.16;5074955;27;103178;-67
2023/10/07 08:34:38;;;;;;;313.95;301.90;;;;;;;25.44;39.28;99546.19;5078549;27;103861;-67
2023/10/07 08:37:14;;;;;;;199.13;191.48;;;;;;;26.69;38.48;99543.25;5073403;27;103720;-68
2023/10/07 08:39:46;;;;;;;198.57;190.77;;;;;;;26.27;39.02;99545.94;5077661;27;103025;-67
2023/10/07 08:42:24;;;;;;;196.67;189.00;;;;;;;26.61;38.16;99529.00;5055890;27;102998;-67
2023/10/07 08:44:58;;;;;;;218.70;209.98;;;;;;;26.19;38.93;99529.81;5075769;27;102941;-67
2023/10/07 08:47:27;;;;;;;257.25;247.40;;;;;;;26.04;39.93;99528.94;5074677;27;103944;-67
2023/10/07 08:49:58;;;;;;;243.43;233.88;;;;;;;26.52;39.39;99530.16;5078390;27;103196;-66
2023/10/07 08:52:29;;;;;;;363.20;348.45;;;;;;;25.33;40.80;99538.53;5078775;27;104228;-59
2023/10/07 08:54:59;;;;;;;401.25;385.13;;;;;;;25.61;40.44;99531.50;5074396;27;103778;-59
2023/10/07 08:57:27;;;;;;;234.43;223.82;;;;;;;26.27;38.38;99535.94;5059804;27;103320;-59
2023/10/07 08:59:59;;;;;;;243.75;233.13;;;;;;;26.37;39.10;99524.78;5076548;27;103290;-60
2023/10/07 09:02:30;;;;;;;359.10;344.60;;;;;;;25.43;40.39;99511.25;5060134;27;102646;-59
2023/10/07 09:04:59;;;;;;;315.30;302.60;;;;;;;26.03;39.99;99524.56;5079204;27;102627;-59
2023/10/07 09:07:31;;;;;;;434.33;417.40;;;;;;;25.34;41.23;99515.91;5075935;27;103677;-59
2023/10/07 09:10:10;;;;;;;301.20;288.50;;;;;;;26.21;39.37;99512.31;5077592;27;103234;-59
2023/10/07 09:12:45;;;;;;;297.43;285.00;;;;;;;26.22;39.61;99513.13;5070021;27;103120;-59
2023/10/07 09:15:20;;;;;;;307.58;294.85;;;;;;;26.12;39.35;99524.25;5077822;27;102662;-59
2023/10/07 09:17:48;;;;;;;453.08;435.20;;;;;;;24.86;40.97;99524.47;5075996;27;103264;-60
2023/10/07 09:20:29;;;;;;;370.50;355.95;;;;;;;26.11;39.74;99533.41;5073223;27;103295;-60
2023/10/07 09:23:01;;;;;;;452.52;435.08;;;;;;;26.25;41.15;99526.31;5055580;27;103047;-59
2023/10/07 09:25:31;;;;;;;328.85;315.42;;;;;;;25.69;40.20;99526.00;5075793;27;103100;-67
2023/10/07 09:28:01;;;;;;;308.23;295.10;;;;;;;26.24;39.38;99519.22;5073680;27;104668;-66
2023/10/07 09:30:38;;;;;;;316.38;302.45;;;;;;;26.44;38.64;99529.22;5075067;27;103229;-66
2023/10/07 09:33:13;;;;;;;315.57;302.87;;;;;;;25.83;39.69;99530.56;5077294;27;102650;-67
2023/10/07 09:35:46;;;;;;;314.27;300.70;;;;;;;26.24;39.14;99527.34;5075570;27;103532;-67
2023/10/07 09:38:28;;;;;;;299.85;286.00;;;;;;;26.35;38.68;99534.97;5054982;27;104131;-66
2023/10/07 09:41:12;;;;;;;317.77;301.15;;;;;;;26.97;37.86;99532.50;5074874;27;103363;-66
2023/10/07 09:43:47;;;;;;;321.90;306.55;;;;;;;27.29;38.61;99528.34;5075366;27;102852;-67
2023/10/07 09:46:24;;;;;;;326.27;312.40;;;;;;;26.40;39.27;99537.94;5055998;27;103665;-67
2023/10/07 09:49:05;;;;;;;368.40;352.35;;;;;;;27.29;38.83;99522.91;5076236;27;103026;-67
2023/10/07 09:51:44;;;;;;;348.13;332.17;;;;;;;26.29;38.31;99535.75;5074400;27;103474;-67
2023/10/07 09:54:26;;;;;;;362.60;348.15;;;;;;;24.93;40.67;99530.81;5077444;27;102584;-67
2023/10/07 09:57:19;;;;;;;353.98;338.20;;;;;;;26.34;39.45;99546.84;5076021;27;103044;-66
2023/10/07 10:03:30;;;;;;;404.65;389.38;;;;;;;27.01;40.09;99541.91;5031342;27;103868;-59
2023/10/07 10:06:16;;;;;;;396.37;379.17;;;;;;;27.51;38.51;99538.13;5075201;27;102870;-60
2023/10/07 10:08:58;;;;;;;374.48;358.25;;;;;;;27.42;38.09;99539.34;5077628;27;103911;-60
2023/10/07 10:11:44;;;;;;;371.90;354.67;;;;;;;26.97;38.36;99533.34;5078018;27;104002;-60
2023/10/07 10:14:29;;;;;;;381.05;363.13;;;;;;;27.23;38.34;99537.31;5074468;27;103465;-59
2023/10/07 10:17:00;;;;;;;440.98;415.45;;;;;;;27.03;36.47;99532.53;5075884;27;103783;-60
2023/10/07 10:19:37;;;;;;;541.03;509.93;;;;;;;27.06;35.70;99529.44;5076975;27;104129;-59
2023/10/07 10:22:10;;;;;;;612.03;578.75;;;;;;;26.29;35.63;99541.16;5079174;27;103774;-59
2023/10/07 10:24:42;;;;;;;600.10;566.27;;;;;;;27.24;35.27;99536.25;5079628;27;103419;-59
2023/10/07 10:27:11;;;;;;;590.83;558.50;;;;;;;26.70;35.90;99534.09;5076477;27;102862;-59
2023/10/07 10:29:55;;;;;;;567.40;536.17;;;;;;;26.86;35.79;99533.84;5074308;27;103816;-59
2023/10/07 10:32:28;;;;;;;512.00;484.10;;;;;;;26.75;35.37;99542.47;5078111;27;104152;-59
2023/10/07 10:35:00;;;;;;;596.25;563.40;;;;;;;27.86;34.94;99530.81;5077439;27;103579;-59
2023/10/07 10:37:30;;;;;;;598.53;565.47;;;;;;;27.85;35.17;99524.53;5078823;27;102719;-59
2023/10/07 10:40:05;;;;;;;606.45;573.30;;;;;;;26.85;35.49;99534.06;5073250;27;103620;-60
2023/10/07 10:42:41;;;;;;;544.10;515.53;;;;;;;26.37;36.23;99522.91;5075384;27;103329;-59
2023/10/07 10:45:17;;;;;;;570.10;539.78;;;;;;;27.05;35.40;99522.34;5079214;27;104042;-60
2023/10/07 10:47:47;;;;;;;602.15;570.67;;;;;;;28.10;34.69;99508.59;5075443;27;102735;-59
2023/10/07 10:50:17;;;;;;;617.67;584.40;;;;;;;27.61;34.48;99511.50;5072668;27;102691;-60
2023/10/07 10:52:48;;;;;;;617.38;584.38;;;;;;;27.50;34.99;99517.47;5078707;27;104336;-67
2023/10/07 10:55:17;;;;;;;591.53;559.95;;;;;;;26.80;35.78;99512.97;5060726;27;104347;-66
2023/10/07 10:57:45;;;;;;;616.10;584.00;;;;;;;26.86;35.53;99495.88;5077343;27;102641;-66
2023/10/07 11:00:19;;;;;;;545.78;517.40;;;;;;;27.27;35.40;99506.00;5075731;27;102775;-66
2023/10/07 11:02:47;;;;;;;570.63;540.42;;;;;;;26.94;35.63;99517.47;5078252;27;103354;-66
2023/10/07 11:05:16;;;;;;;586.53;555.58;;;;;;;27.56;35.15;99506.69;5078896;27;103836;-66
2023/10/07 11:07:46;;;;;;;627.15;595.33;;;;;;;28.32;34.08;99506.59;5078689;27;102992;-66
2023/10/07 11:10:20;;;;;;;622.60;589.17;;;;;;;28.10;35.19;99500.44;5077020;27;103612;-66
2023/10/07 11:12:52;;;;;;;617.20;584.00;;;;;;;27.93;34.80;99499.94;5078191;27;103489;-66
2023/10/07 11:15:25;;;;;;;570.93;540.73;;;;;;;27.27;35.80;99511.44;5077451;27;103184;-66
2023/10/07 11:17:54;;;;;;;615.67;582.90;;;;;;;27.79;35.16;99492.78;5078047;27;102816;-66
2023/10/07 11:20:24;;;;;;;639.13;604.95;;;;;;;27.17;35.83;99486.56;5077877;27;104283;-66
2023/10/07 11:22:53;;;;;;;521.20;494.13;;;;;;;27.38;35.96;99489.19;5057180;27;104344;-66
2023/10/07 11:25:24;;;;;;;570.87;540.70;;;;;;;27.15;36.47;99480.47;5077981;27;103207;-66
2023/10/07 11:27:54;;;;;;;626.63;593.23;;;;;;;28.11;34.92;99478.53;5058976;27;102769;-66